Date,TemperatureHighF,TemperatureAvgF,TemperatureLowF,DewpointHighF,DewpointAvgF,DewpointLowF,HumidityHigh,HumidityAvg,HumidityLow,PressureMaxIn,PressureMinIn,WindSpeedMaxMPH,WindSpeedAvgMPH,GustSpeedMaxMPH,PrecipitationSumIn
2013-9-1,93.2,72.7,54.1,38.2,22.2,6.1,50,22,4,29.56,29.50,14,4,14,0.00
2013-9-3,95.4,78.1,60.1,33.6,15.8,6.1,35,12,4,29.65,29.59,11,4,11,0.00
2013-9-4,88.3,67.8,55.8,39.6,23.4,8.6,52,23,5,29.71,29.65,9,2,9,0.00
2013-9-5,79.0,61.8,56.5,53.4,45.3,14.9,80,61,10,29.74,29.62,22,4,22,2.32
2013-9-6,79.3,63.3,55.2,55.1,40.6,11.6,81,53,8,29.83,29.74,16,6,16,0.91
2013-9-7,85.1,66.6,51.3,54.4,29.4,8.8,78,37,6,29.77,29.59,13,4,13,0.00
2013-9-8,86.0,71.1,55.9,46.1,27.1,8.8,56,25,6,29.74,29.65,17,6,17,0.00
2013-9-9,93.7,73.8,55.9,55.4,25.9,8.8,73,23,6,29.68,29.59,17,6,17,0.00
2013-9-10,91.2,76.1,57.9,57.6,31.1,16.6,75,26,7,29.59,29.44,15,5,15,0.00
2013-9-11,104.7,78.6,58.1,41.3,27.7,8.7,47,22,4,29.62,29.47,9,3,9,0.00
2013-9-12,91.6,68.5,56.1,52.2,35.9,8.8,78,41,5,29.68,29.56,8,2,8,0.00
2013-9-13,82.2,66.0,56.7,52.8,41.6,16.6,75,47,9,29.62,29.50,9,2,9,0.00
2013-9-14,84.7,67.0,57.4,57.8,39.6,15.2,80,46,8,29.53,29.38,9,3,9,0.00
2013-9-15,69.6,61.7,58.3,53.9,46.3,35.8,80,59,29,29.59,29.41,12,5,12,0.00
2013-9-16,84.7,65.1,57.6,47.6,31.2,9.5,67,33,6,29.65,29.56,11,4,13,0.00
2013-9-17,82.2,62.2,55.4,45.6,27.2,8.6,62,32,7,29.71,29.53,16,5,16,0.00
2013-9-18,88.2,63.1,50.2,52.9,26.3,6.0,79,36,5,29.77,29.68,10,3,10,0.00
2013-9-19,90.3,65.2,44.2,42.7,21.3,7.1,76,29,5,29.68,29.44,6,1,6,0.00
2013-9-20,82.4,61.4,49.5,37.7,25.2,8.6,48,30,6,29.47,29.35,18,5,18,0.00
2013-9-21,75.9,61.7,53.8,51.3,33.7,8.6,76,44,8,29.47,29.35,15,5,15,0.00
2013-9-22,58.8,55.6,53.4,48.8,39.9,29.5,76,57,33,29.50,29.41,24,10,24,0.24
2013-9-23,65.8,56.5,52.5,49.2,39.5,32.4,78,54,30,29.68,29.41,17,6,17,0.35
2013-9-24,66.2,54.6,49.6,54.4,41.1,25.6,81,63,23,29.65,29.53,17,3,17,0.51
2013-9-25,75.0,54.2,48.0,43.8,31.6,6.7,76,49,10,29.71,29.53,10,3,10,0.28
2013-9-26,85.6,57.4,45.7,46.3,27.2,6.0,76,42,6,29.80,29.71,10,1,10,0.28
2013-9-27,59.0,51.9,44.2,46.7,35.4,23.4,76,55,27,29.83,29.62,22,7,22,0.28
2013-9-28,66.7,58.8,55.8,49.4,42.2,30.5,76,56,27,29.62,29.38,32,13,32,0.16
2013-9-29,55.4,53.7,52.9,42.4,38.2,34.2,66,56,47,29.38,29.18,31,17,31,0.59
2013-9-30,63.1,53.6,50.5,46.6,33.4,27.0,69,47,28,29.71,29.35,20,9,24,1.50